Keith, Illinois
Current Conditions -  °F | °C
As of 9:35 PM on Saturday 22 Nov 2014 (Local Time) from KFOA Reporting Station
Clear Clear  
Wind Chill: 51°   Ceiling: Unl
Heat Index: 51°   Visibility: 10mi
Dew Point: 43°   Wind: 8mph
Humidity: 75%   Direction: 160°SSE
Pressure: 29.97"   Gusts: NA
Location:  38.5816°N, 88.4678°W
Report Text: KFOA 230335Z AUTO 16007KT 10SM CLR 11/06 A2997 RMK AO2 T01060063
Loading
Personal Weather Stations






























Interactive Weather Map New forecast layout! Learn more

10-Day Weather Forecast

Advertisements
Track Severe Weather on mobile